Terminal Aerodrome Forecast
Issued by NWS

Home | Current Version | Previous Version | Text Only | Print | Product List | Glossary On
Versions: 1 2 3 4 5 6 7 8 9 10 11 12 13 14
000
FTUS46 KHNX 202320
TAFFAT
TAF
KFAT 202320Z 2100/2124 32006KT P6SM BKN050 OVC100
     FM210200 32006KT 5SM -RA OVC050
      TEMPO 2102/2106 3SM RA BR BKN030
     FM211000 32006KT P6SM VCSH SCT030 BKN050
     FM211400 32007KT P6SM BKN030
     FM211900 32008KT P6SM SCT035 BKN050=

USA.gov is the U.S. government's official web portal to all federal, state and local government web resources and services.